sensor_id;sensor_type;location;lat;lon;timestamp;P1;durP1;ratioP1;P2;durP2;ratioP2
16667;SDS011;8447;52.630;4.734;2023-07-20T00:00:05;0.83;;;0.77;;
16667;SDS011;8447;52.630;4.734;2023-07-20T00:02:32;1.77;;;0.50;;
16667;SDS011;8447;52.630;4.734;2023-07-20T00:04:58;1.53;;;0.80;;
16667;SDS011;8447;52.630;4.734;2023-07-20T00:07:25;4.63;;;1.10;;
16667;SDS011;8447;52.630;4.734;2023-07-20T00:09:51;0.80;;;0.80;;
16667;SDS011;8447;52.630;4.734;2023-07-20T00:12:17;1.50;;;0.70;;
16667;SDS011;8447;52.630;4.734;2023-07-20T00:14:45;0.73;;;0.73;;
16667;SDS011;8447;52.630;4.734;2023-07-20T00:17:11;1.37;;;0.73;;
16667;SDS011;8447;52.630;4.734;2023-07-20T00:19:38;0.90;;;0.77;;
16667;SDS011;8447;52.630;4.734;2023-07-20T00:22:04;2.37;;;1.00;;
16667;SDS011;8447;52.630;4.734;2023-07-20T00:24:31;0.50;;;0.50;;
16667;SDS011;8447;52.630;4.734;2023-07-20T00:26:58;1.07;;;0.87;;
16667;SDS011;8447;52.630;4.734;2023-07-20T00:29:25;1.13;;;1.00;;
16667;SDS011;8447;52.630;4.734;2023-07-20T00:31:53;1.67;;;0.70;;
16667;SDS011;8447;52.630;4.734;2023-07-20T00:34:20;1.33;;;0.80;;
16667;SDS011;8447;52.630;4.734;2023-07-20T00:36:46;1.30;;;0.70;;
16667;SDS011;8447;52.630;4.734;2023-07-20T00:39:14;1.63;;;1.10;;
16667;SDS011;8447;52.630;4.734;2023-07-20T00:41:40;1.03;;;0.83;;
16667;SDS011;8447;52.630;4.734;2023-07-20T00:44:07;0.97;;;0.80;;
16667;SDS011;8447;52.630;4.734;2023-07-20T00:46:33;2.97;;;1.00;;
16667;SDS011;8447;52.630;4.734;2023-07-20T00:49:01;1.17;;;0.80;;
16667;SDS011;8447;52.630;4.734;2023-07-20T00:51:28;3.43;;;0.77;;
16667;SDS011;8447;52.630;4.734;2023-07-20T00:53:54;1.43;;;0.90;;
16667;SDS011;8447;52.630;4.734;2023-07-20T00:56:21;0.93;;;0.67;;
16667;SDS011;8447;52.630;4.734;2023-07-20T00:58:48;1.67;;;0.80;;
16667;SDS011;8447;52.630;4.734;2023-07-20T01:01:14;1.63;;;1.27;;
16667;SDS011;8447;52.630;4.734;2023-07-20T01:03:40;2.03;;;1.10;;
16667;SDS011;8447;52.630;4.734;2023-07-20T01:06:12;1.33;;;0.83;;
16667;SDS011;8447;52.630;4.734;2023-07-20T01:08:43;0.90;;;0.70;;
16667;SDS011;8447;52.630;4.734;2023-07-20T01:11:12;1.83;;;0.90;;
16667;SDS011;8447;52.630;4.734;2023-07-20T01:13:41;1.00;;;0.83;;
16667;SDS011;8447;52.630;4.734;2023-07-20T01:16:07;1.37;;;0.63;;
16667;SDS011;8447;52.630;4.734;2023-07-20T01:18:34;3.13;;;1.63;;
16667;SDS011;8447;52.630;4.734;2023-07-20T01:21:03;0.80;;;0.80;;
16667;SDS011;8447;52.630;4.734;2023-07-20T01:23:41;1.10;;;0.93;;
16667;SDS011;8447;52.630;4.734;2023-07-20T01:26:22;1.77;;;0.90;;
16667;SDS011;8447;52.630;4.734;2023-07-20T01:31:33;0.97;;;0.80;;
16667;SDS011;8447;52.630;4.734;2023-07-20T01:34:00;4.27;;;1.10;;
16667;SDS011;8447;52.630;4.734;2023-07-20T01:36:33;1.60;;;1.10;;
16667;SDS011;8447;52.630;4.734;2023-07-20T01:39:00;1.30;;;1.00;;
16667;SDS011;8447;52.630;4.734;2023-07-20T01:41:27;1.90;;;0.80;;
16667;SDS011;8447;52.630;4.734;2023-07-20T01:43:57;1.10;;;1.00;;
16667;SDS011;8447;52.630;4.734;2023-07-20T01:46:23;1.93;;;1.30;;
16667;SDS011;8447;52.630;4.734;2023-07-20T01:48:51;1.17;;;1.00;;
16667;SDS011;8447;52.630;4.734;2023-07-20T01:51:17;2.00;;;0.90;;
16667;SDS011;8447;52.630;4.734;2023-07-20T01:53:44;3.17;;;1.07;;
16667;SDS011;8447;52.630;4.734;2023-07-20T01:56:10;2.73;;;1.00;;
16667;SDS011;8447;52.630;4.734;2023-07-20T01:58:37;1.17;;;1.00;;
16667;SDS011;8447;52.630;4.734;2023-07-20T02:01:03;2.03;;;1.00;;
16667;SDS011;8447;52.630;4.734;2023-07-20T02:03:30;1.20;;;0.80;;
16667;SDS011;8447;52.630;4.734;2023-07-20T02:05:58;2.50;;;0.87;;
16667;SDS011;8447;52.630;4.734;2023-07-20T02:08:24;0.90;;;0.73;;
16667;SDS011;8447;52.630;4.734;2023-07-20T02:10:51;0.70;;;0.67;;
16667;SDS011;8447;52.630;4.734;2023-07-20T02:13:18;0.80;;;0.80;;
16667;SDS011;8447;52.630;4.734;2023-07-20T02:15:44;1.50;;;0.73;;
16667;SDS011;8447;52.630;4.734;2023-07-20T02:18:12;1.67;;;0.90;;
16667;SDS011;8447;52.630;4.734;2023-07-20T02:20:40;1.60;;;0.70;;
16667;SDS011;8447;52.630;4.734;2023-07-20T02:23:08;1.10;;;0.70;;
16667;SDS011;8447;52.630;4.734;2023-07-20T02:25:34;0.60;;;0.60;;
16667;SDS011;8447;52.630;4.734;2023-07-20T02:28:00;1.07;;;0.83;;
16667;SDS011;8447;52.630;4.734;2023-07-20T02:30:27;1.30;;;0.90;;
16667;SDS011;8447;52.630;4.734;2023-07-20T02:32:53;1.70;;;0.60;;
16667;SDS011;8447;52.630;4.734;2023-07-20T02:35:19;1.90;;;1.00;;
16667;SDS011;8447;52.630;4.734;2023-07-20T02:37:46;0.70;;;0.70;;
16667;SDS011;8447;52.630;4.734;2023-07-20T02:40:14;2.00;;;0.70;;
16667;SDS011;8447;52.630;4.734;2023-07-20T02:42:40;0.77;;;0.70;;
16667;SDS011;8447;52.630;4.734;2023-07-20T02:45:07;1.63;;;0.80;;
16667;SDS011;8447;52.630;4.734;2023-07-20T02:47:33;1.37;;;0.70;;
16667;SDS011;8447;52.630;4.734;2023-07-20T02:50:00;0.83;;;0.63;;
16667;SDS011;8447;52.630;4.734;2023-07-20T02:52:26;0.60;;;0.60;;
16667;SDS011;8447;52.630;4.734;2023-07-20T02:54:54;0.77;;;0.70;;
16667;SDS011;8447;52.630;4.734;2023-07-20T02:57:22;4.90;;;0.70;;
16667;SDS011;8447;52.630;4.734;2023-07-20T02:59:48;0.83;;;0.50;;
16667;SDS011;8447;52.630;4.734;2023-07-20T03:02:14;0.90;;;0.77;;
16667;SDS011;8447;52.630;4.734;2023-07-20T03:04:41;0.60;;;0.60;;
16667;SDS011;8447;52.630;4.734;2023-07-20T03:07:07;1.43;;;0.90;;
16667;SDS011;8447;52.630;4.734;2023-07-20T03:09:33;2.03;;;0.80;;
16667;SDS011;8447;52.630;4.734;2023-07-20T03:12:00;0.93;;;0.60;;
16667;SDS011;8447;52.630;4.734;2023-07-20T03:14:27;0.90;;;0.70;;
16667;SDS011;8447;52.630;4.734;2023-07-20T03:16:54;0.70;;;0.70;;
16667;SDS011;8447;52.630;4.734;2023-07-20T03:19:20;1.03;;;0.70;;
16667;SDS011;8447;52.630;4.734;2023-07-20T03:21:46;1.13;;;0.90;;
16667;SDS011;8447;52.630;4.734;2023-07-20T03:24:13;2.77;;;0.80;;
16667;SDS011;8447;52.630;4.734;2023-07-20T03:26:39;1.53;;;0.67;;
16667;SDS011;8447;52.630;4.734;2023-07-20T03:29:06;1.07;;;0.67;;
16667;SDS011;8447;52.630;4.734;2023-07-20T03:31:34;3.70;;;0.57;;
16667;SDS011;8447;52.630;4.734;2023-07-20T03:34:01;1.13;;;0.70;;
16667;SDS011;8447;52.630;4.734;2023-07-20T03:36:27;1.73;;;0.50;;
16667;SDS011;8447;52.630;4.734;2023-07-20T03:38:54;0.87;;;0.70;;
16667;SDS011;8447;52.630;4.734;2023-07-20T03:41:20;1.43;;;0.70;;
16667;SDS011;8447;52.630;4.734;2023-07-20T03:43:46;4.00;;;0.80;;
16667;SDS011;8447;52.630;4.734;2023-07-20T03:46:13;0.73;;;0.60;;
16667;SDS011;8447;52.630;4.734;2023-07-20T03:48:41;1.10;;;0.67;;
16667;SDS011;8447;52.630;4.734;2023-07-20T03:51:08;0.90;;;0.60;;
16667;SDS011;8447;52.630;4.734;2023-07-20T03:53:34;1.30;;;0.67;;
16667;SDS011;8447;52.630;4.734;2023-07-20T03:56:00;0.97;;;0.60;;
16667;SDS011;8447;52.630;4.734;2023-07-20T03:58:26;0.80;;;0.70;;
16667;SDS011;8447;52.630;4.734;2023-07-20T04:00:52;0.90;;;0.60;;
16667;SDS011;8447;52.630;4.734;2023-07-20T04:03:19;1.43;;;0.60;;
16667;SDS011;8447;52.630;4.734;2023-07-20T04:05:46;1.23;;;0.60;;
16667;SDS011;8447;52.630;4.734;2023-07-20T04:08:13;2.30;;;0.80;;
16667;SDS011;8447;52.630;4.734;2023-07-20T04:10:42;1.93;;;0.90;;
16667;SDS011;8447;52.630;4.734;2023-07-20T04:13:09;0.87;;;0.70;;
16667;SDS011;8447;52.630;4.734;2023-07-20T04:15:35;0.60;;;0.50;;
16667;SDS011;8447;52.630;4.734;2023-07-20T04:18:01;2.00;;;0.73;;
16667;SDS011;8447;52.630;4.734;2023-07-20T04:20:28;4.00;;;0.67;;
16667;SDS011;8447;52.630;4.734;2023-07-20T04:22:56;2.07;;;0.80;;
16667;SDS011;8447;52.630;4.734;2023-07-20T04:25:22;2.20;;;0.60;;
16667;SDS011;8447;52.630;4.734;2023-07-20T04:27:49;3.23;;;0.70;;
16667;SDS011;8447;52.630;4.734;2023-07-20T04:30:17;0.43;;;0.43;;
16667;SDS011;8447;52.630;4.734;2023-07-20T04:32:45;1.37;;;0.60;;
16667;SDS011;8447;52.630;4.734;2023-07-20T04:35:16;0.57;;;0.57;;
16667;SDS011;8447;52.630;4.734;2023-07-20T04:37:43;0.70;;;0.70;;
16667;SDS011;8447;52.630;4.734;2023-07-20T04:40:12;0.90;;;0.73;;
16667;SDS011;8447;52.630;4.734;2023-07-20T04:42:39;0.77;;;0.60;;
16667;SDS011;8447;52.630;4.734;2023-07-20T04:45:06;0.70;;;0.70;;
16667;SDS011;8447;52.630;4.734;2023-07-20T04:47:32;2.93;;;0.70;;
16667;SDS011;8447;52.630;4.734;2023-07-20T04:49:59;1.93;;;0.90;;
16667;SDS011;8447;52.630;4.734;2023-07-20T04:52:25;3.90;;;1.07;;
16667;SDS011;8447;52.630;4.734;2023-07-20T04:54:51;1.10;;;0.90;;
16667;SDS011;8447;52.630;4.734;2023-07-20T04:57:19;0.70;;;0.70;;
16667;SDS011;8447;52.630;4.734;2023-07-20T04:59:46;2.20;;;1.00;;
16667;SDS011;8447;52.630;4.734;2023-07-20T05:02:12;1.10;;;1.10;;
16667;SDS011;8447;52.630;4.734;2023-07-20T05:04:38;3.83;;;1.10;;
16667;SDS011;8447;52.630;4.734;2023-07-20T05:07:05;2.07;;;1.10;;
16667;SDS011;8447;52.630;4.734;2023-07-20T05:09:31;1.00;;;0.90;;
16667;SDS011;8447;52.630;4.734;2023-07-20T05:11:58;1.40;;;1.03;;
16667;SDS011;8447;52.630;4.734;2023-07-20T05:14:25;3.30;;;1.53;;
16667;SDS011;8447;52.630;4.734;2023-07-20T05:16:52;1.73;;;1.00;;
16667;SDS011;8447;52.630;4.734;2023-07-20T05:19:18;1.23;;;1.00;;
16667;SDS011;8447;52.630;4.734;2023-07-20T05:21:45;2.43;;;1.37;;
16667;SDS011;8447;52.630;4.734;2023-07-20T05:24:11;1.47;;;0.90;;
16667;SDS011;8447;52.630;4.734;2023-07-20T05:26:37;1.00;;;0.90;;
16667;SDS011;8447;52.630;4.734;2023-07-20T05:29:04;3.10;;;0.93;;
16667;SDS011;8447;52.630;4.734;2023-07-20T05:31:31;0.93;;;0.80;;
16667;SDS011;8447;52.630;4.734;2023-07-20T05:33:58;2.60;;;0.83;;
16667;SDS011;8447;52.630;4.734;2023-07-20T05:36:24;3.50;;;1.60;;
16667;SDS011;8447;52.630;4.734;2023-07-20T05:38:51;2.77;;;1.23;;
16667;SDS011;8447;52.630;4.734;2023-07-20T05:41:17;2.17;;;0.97;;
16667;SDS011;8447;52.630;4.734;2023-07-20T05:43:43;0.80;;;0.80;;
16667;SDS011;8447;52.630;4.734;2023-07-20T05:46:10;1.70;;;1.10;;
16667;SDS011;8447;52.630;4.734;2023-07-20T05:48:37;2.60;;;0.90;;
16667;SDS011;8447;52.630;4.734;2023-07-20T05:51:04;1.33;;;0.87;;
16667;SDS011;8447;52.630;4.734;2023-07-20T05:53:31;4.53;;;0.63;;
16667;SDS011;8447;52.630;4.734;2023-07-20T05:55:57;1.30;;;0.90;;
16667;SDS011;8447;52.630;4.734;2023-07-20T05:58:24;1.03;;;0.70;;
16667;SDS011;8447;52.630;4.734;2023-07-20T06:00:50;1.67;;;0.90;;
16667;SDS011;8447;52.630;4.734;2023-07-20T06:03:16;1.47;;;0.80;;
16667;SDS011;8447;52.630;4.734;2023-07-20T06:05:44;2.03;;;0.90;;
16667;SDS011;8447;52.630;4.734;2023-07-20T06:08:11;4.00;;;0.60;;
16667;SDS011;8447;52.630;4.734;2023-07-20T06:10:37;1.67;;;0.50;;
16667;SDS011;8447;52.630;4.734;2023-07-20T06:13:04;0.50;;;0.50;;
16667;SDS011;8447;52.630;4.734;2023-07-20T06:15:31;3.17;;;0.53;;
16667;SDS011;8447;52.630;4.734;2023-07-20T06:17:59;1.93;;;0.70;;
16667;SDS011;8447;52.630;4.734;2023-07-20T06:20:26;0.60;;;0.43;;
16667;SDS011;8447;52.630;4.734;2023-07-20T06:22:54;1.80;;;0.50;;
16667;SDS011;8447;52.630;4.734;2023-07-20T06:25:20;0.83;;;0.70;;
16667;SDS011;8447;52.630;4.734;2023-07-20T06:27:48;0.60;;;0.60;;
16667;SDS011;8447;52.630;4.734;2023-07-20T06:30:15;1.30;;;0.80;;
16667;SDS011;8447;52.630;4.734;2023-07-20T06:32:41;0.40;;;0.40;;
16667;SDS011;8447;52.630;4.734;2023-07-20T06:35:08;2.67;;;0.50;;
16667;SDS011;8447;52.630;4.734;2023-07-20T06:37:34;2.93;;;0.70;;
16667;SDS011;8447;52.630;4.734;2023-07-20T06:40:03;1.23;;;0.70;;
16667;SDS011;8447;52.630;4.734;2023-07-20T06:42:29;1.17;;;0.50;;
16667;SDS011;8447;52.630;4.734;2023-07-20T06:44:56;1.37;;;0.40;;
16667;SDS011;8447;52.630;4.734;2023-07-20T06:47:22;1.37;;;0.50;;
16667;SDS011;8447;52.630;4.734;2023-07-20T06:49:49;2.07;;;0.50;;
16667;SDS011;8447;52.630;4.734;2023-07-20T06:52:15;2.83;;;0.50;;
16667;SDS011;8447;52.630;4.734;2023-07-20T06:54:42;2.00;;;0.60;;
16667;SDS011;8447;52.630;4.734;2023-07-20T06:57:09;2.30;;;0.80;;
16667;SDS011;8447;52.630;4.734;2023-07-20T06:59:36;9.87;;;1.47;;
16667;SDS011;8447;52.630;4.734;2023-07-20T07:02:02;3.27;;;0.80;;
16667;SDS011;8447;52.630;4.734;2023-07-20T07:04:29;1.07;;;0.47;;
16667;SDS011;8447;52.630;4.734;2023-07-20T07:06:55;0.50;;;0.50;;
16667;SDS011;8447;52.630;4.734;2023-07-20T07:09:21;0.93;;;0.50;;
16667;SDS011;8447;52.630;4.734;2023-07-20T07:11:49;0.27;;;0.27;;
16667;SDS011;8447;52.630;4.734;2023-07-20T07:14:17;1.07;;;0.30;;
16667;SDS011;8447;52.630;4.734;2023-07-20T07:16:43;1.13;;;0.30;;
16667;SDS011;8447;52.630;4.734;2023-07-20T07:19:10;2.17;;;0.70;;
16667;SDS011;8447;52.630;4.734;2023-07-20T07:21:36;1.87;;;0.60;;
16667;SDS011;8447;52.630;4.734;2023-07-20T07:24:04;0.60;;;0.40;;
16667;SDS011;8447;52.630;4.734;2023-07-20T07:26:32;0.47;;;0.40;;
16667;SDS011;8447;52.630;4.734;2023-07-20T07:28:58;0.90;;;0.50;;
16667;SDS011;8447;52.630;4.734;2023-07-20T07:31:26;0.70;;;0.47;;
16667;SDS011;8447;52.630;4.734;2023-07-20T07:33:52;0.70;;;0.50;;
16667;SDS011;8447;52.630;4.734;2023-07-20T07:36:19;1.47;;;0.43;;
16667;SDS011;8447;52.630;4.734;2023-07-20T07:38:45;1.27;;;0.40;;
16667;SDS011;8447;52.630;4.734;2023-07-20T07:41:12;1.20;;;0.33;;
16667;SDS011;8447;52.630;4.734;2023-07-20T07:43:38;0.30;;;0.30;;
16667;SDS011;8447;52.630;4.734;2023-07-20T07:46:05;1.80;;;0.37;;
16667;SDS011;8447;52.630;4.734;2023-07-20T07:48:33;2.20;;;0.40;;
16667;SDS011;8447;52.630;4.734;2023-07-20T07:50:59;1.73;;;0.33;;
16667;SDS011;8447;52.630;4.734;2023-07-20T07:53:26;0.57;;;0.40;;
16667;SDS011;8447;52.630;4.734;2023-07-20T07:55:52;2.10;;;0.50;;
16667;SDS011;8447;52.630;4.734;2023-07-20T07:58:19;0.83;;;0.50;;
16667;SDS011;8447;52.630;4.734;2023-07-20T08:00:45;1.37;;;0.50;;
16667;SDS011;8447;52.630;4.734;2023-07-20T08:03:13;0.30;;;0.27;;
16667;SDS011;8447;52.630;4.734;2023-07-20T08:05:40;0.93;;;0.50;;
16667;SDS011;8447;52.630;4.734;2023-07-20T08:08:07;0.60;;;0.40;;
16667;SDS011;8447;52.630;4.734;2023-07-20T08:10:34;1.93;;;0.50;;
16667;SDS011;8447;52.630;4.734;2023-07-20T08:13:00;1.07;;;0.50;;
16667;SDS011;8447;52.630;4.734;2023-07-20T08:15:26;1.63;;;0.50;;
16667;SDS011;8447;52.630;4.734;2023-07-20T08:17:53;0.50;;;0.37;;
16667;SDS011;8447;52.630;4.734;2023-07-20T08:20:19;2.50;;;0.47;;
16667;SDS011;8447;52.630;4.734;2023-07-20T08:22:53;0.70;;;0.47;;
16667;SDS011;8447;52.630;4.734;2023-07-20T08:25:19;0.40;;;0.37;;
16667;SDS011;8447;52.630;4.734;2023-07-20T08:27:47;0.40;;;0.30;;
16667;SDS011;8447;52.630;4.734;2023-07-20T08:30:13;1.37;;;0.30;;
16667;SDS011;8447;52.630;4.734;2023-07-20T08:32:39;0.93;;;0.50;;
16667;SDS011;8447;52.630;4.734;2023-07-20T08:35:06;1.20;;;0.40;;
16667;SDS011;8447;52.630;4.734;2023-07-20T08:37:33;1.70;;;0.30;;
16667;SDS011;8447;52.630;4.734;2023-07-20T08:40:00;0.77;;;0.40;;
16667;SDS011;8447;52.630;4.734;2023-07-20T08:42:33;0.70;;;0.40;;
16667;SDS011;8447;52.630;4.734;2023-07-20T08:45:00;0.40;;;0.40;;
16667;SDS011;8447;52.630;4.734;2023-07-20T08:47:26;0.50;;;0.30;;
16667;SDS011;8447;52.630;4.734;2023-07-20T08:49:53;0.40;;;0.30;;
16667;SDS011;8447;52.630;4.734;2023-07-20T08:52:20;1.73;;;0.60;;
16667;SDS011;8447;52.630;4.734;2023-07-20T08:54:47;0.20;;;0.20;;
16667;SDS011;8447;52.630;4.734;2023-07-20T08:57:15;0.43;;;0.43;;
16667;SDS011;8447;52.630;4.734;2023-07-20T08:59:41;1.50;;;0.60;;
16667;SDS011;8447;52.630;4.734;2023-07-20T09:02:09;1.13;;;0.40;;
16667;SDS011;8447;52.630;4.734;2023-07-20T09:04:37;0.30;;;0.30;;
16667;SDS011;8447;52.630;4.734;2023-07-20T09:07:04;1.97;;;0.47;;
16667;SDS011;8447;52.630;4.734;2023-07-20T09:09:31;0.57;;;0.40;;
16667;SDS011;8447;52.630;4.734;2023-07-20T09:11:57;0.63;;;0.43;;
16667;SDS011;8447;52.630;4.734;2023-07-20T09:14:25;0.87;;;0.40;;
16667;SDS011;8447;52.630;4.734;2023-07-20T09:16:52;0.40;;;0.40;;
16667;SDS011;8447;52.630;4.734;2023-07-20T09:19:19;1.13;;;0.50;;
16667;SDS011;8447;52.630;4.734;2023-07-20T09:21:46;1.33;;;0.40;;
16667;SDS011;8447;52.630;4.734;2023-07-20T09:24:13;0.70;;;0.33;;
16667;SDS011;8447;52.630;4.734;2023-07-20T09:26:42;0.30;;;0.30;;
16667;SDS011;8447;52.630;4.734;2023-07-20T09:29:09;0.37;;;0.37;;
16667;SDS011;8447;52.630;4.734;2023-07-20T09:31:37;0.37;;;0.30;;
16667;SDS011;8447;52.630;4.734;2023-07-20T09:34:05;1.77;;;1.17;;
16667;SDS011;8447;52.630;4.734;2023-07-20T09:36:35;2.77;;;0.40;;
16667;SDS011;8447;52.630;4.734;2023-07-20T09:39:03;0.40;;;0.30;;
16667;SDS011;8447;52.630;4.734;2023-07-20T09:41:30;0.93;;;0.50;;
16667;SDS011;8447;52.630;4.734;2023-07-20T09:43:56;0.83;;;0.40;;
16667;SDS011;8447;52.630;4.734;2023-07-20T09:46:22;2.47;;;0.47;;
16667;SDS011;8447;52.630;4.734;2023-07-20T09:48:53;0.87;;;0.40;;
16667;SDS011;8447;52.630;4.734;2023-07-20T09:51:20;1.43;;;0.50;;
16667;SDS011;8447;52.630;4.734;2023-07-20T09:53:47;0.50;;;0.40;;
16667;SDS011;8447;52.630;4.734;2023-07-20T09:56:14;0.73;;;0.40;;
16667;SDS011;8447;52.630;4.734;2023-07-20T09:58:43;0.40;;;0.40;;
16667;SDS011;8447;52.630;4.734;2023-07-20T10:01:11;0.73;;;0.40;;
16667;SDS011;8447;52.630;4.734;2023-07-20T10:03:41;0.50;;;0.40;;
16667;SDS011;8447;52.630;4.734;2023-07-20T10:06:13;0.57;;;0.30;;
16667;SDS011;8447;52.630;4.734;2023-07-20T10:08:41;0.63;;;0.47;;
16667;SDS011;8447;52.630;4.734;2023-07-20T10:11:08;1.37;;;0.50;;
16667;SDS011;8447;52.630;4.734;2023-07-20T10:13:37;0.30;;;0.20;;
16667;SDS011;8447;52.630;4.734;2023-07-20T10:16:05;1.75;;;0.65;;
16667;SDS011;8447;52.630;4.734;2023-07-20T10:18:34;0.70;;;0.40;;
16667;SDS011;8447;52.630;4.734;2023-07-20T10:21:03;0.30;;;0.30;;
16667;SDS011;8447;52.630;4.734;2023-07-20T10:23:33;0.70;;;0.40;;
16667;SDS011;8447;52.630;4.734;2023-07-20T10:26:01;0.35;;;0.30;;
16667;SDS011;8447;52.630;4.734;2023-07-20T10:28:28;0.60;;;0.50;;
16667;SDS011;8447;52.630;4.734;2023-07-20T10:30:54;0.50;;;0.30;;
16667;SDS011;8447;52.630;4.734;2023-07-20T10:33:21;0.52;;;0.40;;
16667;SDS011;8447;52.630;4.734;2023-07-20T10:35:50;1.42;;;0.38;;
16667;SDS011;8447;52.630;4.734;2023-07-20T10:38:17;0.63;;;0.35;;
16667;SDS011;8447;52.630;4.734;2023-07-20T10:40:45;1.35;;;0.30;;
16667;SDS011;8447;52.630;4.734;2023-07-20T10:43:19;1.38;;;0.50;;
16667;SDS011;8447;52.630;4.734;2023-07-20T10:45:48;0.52;;;0.50;;
16667;SDS011;8447;52.630;4.734;2023-07-20T10:48:15;1.33;;;0.50;;
16667;SDS011;8447;52.630;4.734;2023-07-20T10:50:42;1.13;;;0.47;;
16667;SDS011;8447;52.630;4.734;2023-07-20T10:53:12;0.75;;;0.50;;
16667;SDS011;8447;52.630;4.734;2023-07-20T10:55:38;0.30;;;0.30;;
16667;SDS011;8447;52.630;4.734;2023-07-20T10:58:10;0.90;;;0.40;;
16667;SDS011;8447;52.630;4.734;2023-07-20T11:00:37;1.23;;;0.40;;
16667;SDS011;8447;52.630;4.734;2023-07-20T11:03:04;1.20;;;0.40;;
16667;SDS011;8447;52.630;4.734;2023-07-20T11:05:33;1.67;;;0.40;;
16667;SDS011;8447;52.630;4.734;2023-07-20T11:08:00;0.38;;;0.30;;
16667;SDS011;8447;52.630;4.734;2023-07-20T11:10:28;1.13;;;0.30;;
16667;SDS011;8447;52.630;4.734;2023-07-20T11:15:47;0.93;;;0.70;;
16667;SDS011;8447;52.630;4.734;2023-07-20T11:18:13;0.40;;;0.40;;
16667;SDS011;8447;52.630;4.734;2023-07-20T11:20:40;7.85;;;1.10;;
16667;SDS011;8447;52.630;4.734;2023-07-20T11:23:07;8.75;;;1.10;;
16667;SDS011;8447;52.630;4.734;2023-07-20T11:25:37;3.65;;;0.93;;
16667;SDS011;8447;52.630;4.734;2023-07-20T11:28:06;2.90;;;0.45;;
16667;SDS011;8447;52.630;4.734;2023-07-20T11:30:33;0.82;;;0.63;;
16667;SDS011;8447;52.630;4.734;2023-07-20T11:33:01;2.28;;;0.70;;
16667;SDS011;8447;52.630;4.734;2023-07-20T11:35:27;3.05;;;0.35;;
16667;SDS011;8447;52.630;4.734;2023-07-20T11:37:54;1.13;;;0.40;;
16667;SDS011;8447;52.630;4.734;2023-07-20T11:40:23;0.40;;;0.30;;
16667;SDS011;8447;52.630;4.734;2023-07-20T11:42:50;0.60;;;0.30;;
16667;SDS011;8447;52.630;4.734;2023-07-20T11:45:17;1.45;;;0.55;;
16667;SDS011;8447;52.630;4.734;2023-07-20T11:47:44;0.65;;;0.38;;
16667;SDS011;8447;52.630;4.734;2023-07-20T11:50:12;0.30;;;0.30;;
16667;SDS011;8447;52.630;4.734;2023-07-20T11:52:39;0.70;;;0.30;;
16667;SDS011;8447;52.630;4.734;2023-07-20T11:55:06;0.30;;;0.30;;
16667;SDS011;8447;52.630;4.734;2023-07-20T11:57:33;0.73;;;0.40;;
16667;SDS011;8447;52.630;4.734;2023-07-20T12:00:00;0.50;;;0.40;;
16667;SDS011;8447;52.630;4.734;2023-07-20T12:02:30;0.43;;;0.40;;
16667;SDS011;8447;52.630;4.734;2023-07-20T12:04:57;1.27;;;0.50;;
16667;SDS011;8447;52.630;4.734;2023-07-20T12:07:25;1.37;;;0.40;;
16667;SDS011;8447;52.630;4.734;2023-07-20T12:10:02;0.60;;;0.40;;
16667;SDS011;8447;52.630;4.734;2023-07-20T12:12:30;0.63;;;0.40;;
16667;SDS011;8447;52.630;4.734;2023-07-20T12:15:11;0.30;;;0.23;;
16667;SDS011;8447;52.630;4.734;2023-07-20T12:17:41;0.60;;;0.50;;
16667;SDS011;8447;52.630;4.734;2023-07-20T12:20:08;0.80;;;0.30;;
16667;SDS011;8447;52.630;4.734;2023-07-20T12:22:39;0.90;;;0.40;;
16667;SDS011;8447;52.630;4.734;2023-07-20T12:25:06;0.67;;;0.40;;
16667;SDS011;8447;52.630;4.734;2023-07-20T12:27:32;1.50;;;0.30;;
16667;SDS011;8447;52.630;4.734;2023-07-20T12:29:59;0.93;;;0.40;;
16667;SDS011;8447;52.630;4.734;2023-07-20T12:32:25;0.30;;;0.30;;
16667;SDS011;8447;52.630;4.734;2023-07-20T12:34:51;0.30;;;0.30;;
16667;SDS011;8447;52.630;4.734;2023-07-20T12:37:18;0.53;;;0.37;;
16667;SDS011;8447;52.630;4.734;2023-07-20T12:39:45;0.50;;;0.30;;
16667;SDS011;8447;52.630;4.734;2023-07-20T12:42:13;0.30;;;0.30;;
16667;SDS011;8447;52.630;4.734;2023-07-20T12:44:40;0.43;;;0.30;;
16667;SDS011;8447;52.630;4.734;2023-07-20T12:47:06;0.20;;;0.20;;
16667;SDS011;8447;52.630;4.734;2023-07-20T12:49:33;0.50;;;0.30;;
16667;SDS011;8447;52.630;4.734;2023-07-20T12:51:59;0.50;;;0.40;;
16667;SDS011;8447;52.630;4.734;2023-07-20T12:54:25;0.30;;;0.30;;
16667;SDS011;8447;52.630;4.734;2023-07-20T12:56:56;0.50;;;0.30;;
16667;SDS011;8447;52.630;4.734;2023-07-20T12:59:22;0.33;;;0.33;;
16667;SDS011;8447;52.630;4.734;2023-07-20T13:01:48;3.30;;;0.40;;
16667;SDS011;8447;52.630;4.734;2023-07-20T13:04:15;0.63;;;0.30;;
16667;SDS011;8447;52.630;4.734;2023-07-20T13:06:41;0.37;;;0.30;;
16667;SDS011;8447;52.630;4.734;2023-07-20T13:09:10;2.03;;;0.70;;
16667;SDS011;8447;52.630;4.734;2023-07-20T13:11:36;2.03;;;0.40;;
16667;SDS011;8447;52.630;4.734;2023-07-20T13:14:04;0.30;;;0.30;;
16667;SDS011;8447;52.630;4.734;2023-07-20T13:16:30;1.00;;;0.40;;
16667;SDS011;8447;52.630;4.734;2023-07-20T13:18:56;0.67;;;0.40;;
16667;SDS011;8447;52.630;4.734;2023-07-20T13:21:23;3.60;;;0.60;;
16667;SDS011;8447;52.630;4.734;2023-07-20T13:23:49;0.70;;;0.43;;
16667;SDS011;8447;52.630;4.734;2023-07-20T13:26:16;0.40;;;0.40;;
16667;SDS011;8447;52.630;4.734;2023-07-20T13:28:42;0.80;;;0.40;;
16667;SDS011;8447;52.630;4.734;2023-07-20T13:31:10;0.63;;;0.50;;
16667;SDS011;8447;52.630;4.734;2023-07-20T13:33:37;0.40;;;0.40;;
16667;SDS011;8447;52.630;4.734;2023-07-20T13:36:03;0.93;;;0.60;;
16667;SDS011;8447;52.630;4.734;2023-07-20T13:38:30;1.30;;;0.50;;
16667;SDS011;8447;52.630;4.734;2023-07-20T13:40:57;1.40;;;0.73;;
16667;SDS011;8447;52.630;4.734;2023-07-20T13:43:23;2.63;;;0.80;;
16667;SDS011;8447;52.630;4.734;2023-07-20T13:45:50;0.70;;;0.50;;
16667;SDS011;8447;52.630;4.734;2023-07-20T13:48:17;1.77;;;0.53;;
16667;SDS011;8447;52.630;4.734;2023-07-20T13:50:48;2.30;;;0.50;;
16667;SDS011;8447;52.630;4.734;2023-07-20T13:53:14;0.90;;;0.73;;
16667;SDS011;8447;52.630;4.734;2023-07-20T13:55:41;1.17;;;0.77;;
16667;SDS011;8447;52.630;4.734;2023-07-20T13:58:07;0.93;;;0.40;;
16667;SDS011;8447;52.630;4.734;2023-07-20T14:00:35;0.73;;;0.73;;
16667;SDS011;8447;52.630;4.734;2023-07-20T14:03:02;2.07;;;0.60;;
16667;SDS011;8447;52.630;4.734;2023-07-20T14:05:30;2.17;;;0.40;;
16667;SDS011;8447;52.630;4.734;2023-07-20T14:07:56;0.67;;;0.40;;
16667;SDS011;8447;52.630;4.734;2023-07-20T14:10:23;0.60;;;0.40;;
16667;SDS011;8447;52.630;4.734;2023-07-20T14:12:49;2.13;;;0.60;;
16667;SDS011;8447;52.630;4.734;2023-07-20T14:15:16;0.87;;;0.40;;
16667;SDS011;8447;52.630;4.734;2023-07-20T14:17:43;6.27;;;0.70;;
16667;SDS011;8447;52.630;4.734;2023-07-20T14:20:10;0.40;;;0.40;;
16667;SDS011;8447;52.630;4.734;2023-07-20T14:22:38;0.30;;;0.30;;
16667;SDS011;8447;52.630;4.734;2023-07-20T14:25:07;1.57;;;0.27;;
16667;SDS011;8447;52.630;4.734;2023-07-20T14:27:33;0.50;;;0.30;;
16667;SDS011;8447;52.630;4.734;2023-07-20T14:30:00;0.40;;;0.37;;
16667;SDS011;8447;52.630;4.734;2023-07-20T14:32:26;0.83;;;0.40;;
16667;SDS011;8447;52.630;4.734;2023-07-20T14:34:53;0.50;;;0.30;;
16667;SDS011;8447;52.630;4.734;2023-07-20T14:37:19;1.90;;;0.50;;
16667;SDS011;8447;52.630;4.734;2023-07-20T14:39:47;0.40;;;0.30;;
16667;SDS011;8447;52.630;4.734;2023-07-20T14:42:15;0.53;;;0.40;;
16667;SDS011;8447;52.630;4.734;2023-07-20T14:44:43;1.23;;;0.43;;
16667;SDS011;8447;52.630;4.734;2023-07-20T14:47:09;0.67;;;0.40;;
16667;SDS011;8447;52.630;4.734;2023-07-20T14:49:35;0.47;;;0.40;;
16667;SDS011;8447;52.630;4.734;2023-07-20T14:52:02;0.40;;;0.40;;
16667;SDS011;8447;52.630;4.734;2023-07-20T14:54:28;0.40;;;0.40;;
16667;SDS011;8447;52.630;4.734;2023-07-20T14:56:56;3.30;;;1.23;;
16667;SDS011;8447;52.630;4.734;2023-07-20T14:59:22;1.23;;;0.50;;
16667;SDS011;8447;52.630;4.734;2023-07-20T15:01:49;0.70;;;0.60;;
16667;SDS011;8447;52.630;4.734;2023-07-20T15:04:16;0.47;;;0.30;;